KDMO/DMO METAR and TAF weather

Enter ICAO airport designator
Station Type Date Time Source
KDMO METAR 2019/12/13 21:53 UTC NOAA

KDMO 132153Z AUTO 21006KT 10SM CLR 11/01 A2981 RMK AO2 SLP095 T01110011


Station Type Date Time Source
KDMO Decoded METAR 2019/12/13 21:53 UTC NOAA

SEDALIA MEMORIAL AIRPORT, MO, United States (KDMO) 38-43N 93-10W 274M
Dec 13, 2019 - 04:53 PM EST / 2019.12.13 2153 UTC
Wind: from the SSW (210 degrees) at 7 MPH (6 KT):0
Visibility: 10 mile(s):0
Sky conditions: clear
Temperature: 52.0 F (11.1 C)
Dew Point: 34.0 F (1.1 C)
Relative Humidity: 50%
Pressure (altimeter): 29.81 in. Hg (1009 hPa)
ob: KDMO 132153Z AUTO 21006KT 10SM CLR 11/01 A2981 RMK AO2 SLP095 T01110011
cycle: 22

Station Type Date Time Source
KDMO TAF UTC NOAA

Error!

Example: see airport list